Alto Araguaia, Brazil
Current Conditions -  °F | °C
As of 1:00 PM on Friday 28 Nov 2014 (Local Time) from SBCY Reporting Station
Broken Clouds Broken Clouds  
Wind Chill: 86°   Ceiling: 10000
Heat Index: 92°   Visibility: 6mi
Dew Point: 72°   Wind: 12mph
Humidity: 62%   Direction: 300°WNW
Pressure: 29.88"   Gusts: NA
Location:  17.31°S, 53.22°W
Report Text: SBCY 281600Z 30010KT 9999 SCT020 FEW025TCU BKN100 30/22 Q1012
Loading
Personal Weather Stations






























Interactive Weather Map New forecast layout! Learn more

10-Day Weather Forecast

Advertisements
Track Severe Weather on mobile